sensor_id;sensor_type;location;lat;lon;timestamp;P1;durP1;ratioP1;P2;durP2;ratioP2
9234;SDS011;4652;42.716;23.218;2022-11-12T00:06:34;29.40;;;19.23;;
9234;SDS011;4652;42.716;23.218;2022-11-12T00:13:18;29.50;;;19.30;;
9234;SDS011;4652;42.716;23.218;2022-11-12T00:20:00;29.10;;;18.80;;
9234;SDS011;4652;42.716;23.218;2022-11-12T00:26:42;28.30;;;18.77;;
9234;SDS011;4652;42.716;23.218;2022-11-12T00:33:26;30.87;;;19.73;;
9234;SDS011;4652;42.716;23.218;2022-11-12T00:40:08;28.97;;;19.53;;
9234;SDS011;4652;42.716;23.218;2022-11-12T00:46:50;33.03;;;19.93;;
9234;SDS011;4652;42.716;23.218;2022-11-12T00:53:34;29.37;;;19.27;;
9234;SDS011;4652;42.716;23.218;2022-11-12T01:00:16;29.10;;;20.30;;
9234;SDS011;4652;42.716;23.218;2022-11-12T01:06:59;34.07;;;21.90;;
9234;SDS011;4652;42.716;23.218;2022-11-12T01:13:43;30.97;;;20.47;;
9234;SDS011;4652;42.716;23.218;2022-11-12T01:20:26;30.97;;;19.47;;
9234;SDS011;4652;42.716;23.218;2022-11-12T01:27:08;29.53;;;18.97;;
9234;SDS011;4652;42.716;23.218;2022-11-12T01:33:53;29.30;;;19.23;;
9234;SDS011;4652;42.716;23.218;2022-11-12T01:40:36;28.17;;;18.10;;
9234;SDS011;4652;42.716;23.218;2022-11-12T01:47:19;23.70;;;16.93;;
9234;SDS011;4652;42.716;23.218;2022-11-12T01:54:05;25.13;;;17.30;;
9234;SDS011;4652;42.716;23.218;2022-11-12T02:18:32;23.03;;;15.93;;
9234;SDS011;4652;42.716;23.218;2022-11-12T02:25:17;23.43;;;16.23;;
9234;SDS011;4652;42.716;23.218;2022-11-12T02:32:01;23.87;;;16.27;;
9234;SDS011;4652;42.716;23.218;2022-11-12T02:38:43;23.63;;;15.73;;
9234;SDS011;4652;42.716;23.218;2022-11-12T02:45:27;23.97;;;16.60;;
9234;SDS011;4652;42.716;23.218;2022-11-12T02:52:13;27.57;;;19.30;;
9234;SDS011;4652;42.716;23.218;2022-11-12T02:58:55;27.37;;;18.83;;
9234;SDS011;4652;42.716;23.218;2022-11-12T03:05:38;26.00;;;17.83;;
9234;SDS011;4652;42.716;23.218;2022-11-12T03:12:20;24.00;;;17.00;;
9234;SDS011;4652;42.716;23.218;2022-11-12T03:19:02;23.60;;;16.67;;
9234;SDS011;4652;42.716;23.218;2022-11-12T03:25:46;23.63;;;16.97;;
9234;SDS011;4652;42.716;23.218;2022-11-12T03:32:28;15.70;;;11.60;;
9234;SDS011;4652;42.716;23.218;2022-11-12T03:39:10;12.93;;;8.23;;
9234;SDS011;4652;42.716;23.218;2022-11-12T03:45:54;19.40;;;13.00;;
9234;SDS011;4652;42.716;23.218;2022-11-12T03:52:36;11.20;;;8.77;;
9234;SDS011;4652;42.716;23.218;2022-11-12T03:59:18;13.27;;;9.50;;
9234;SDS011;4652;42.716;23.218;2022-11-12T04:06:02;12.47;;;9.83;;
9234;SDS011;4652;42.716;23.218;2022-11-12T04:13:02;12.50;;;9.73;;
9234;SDS011;4652;42.716;23.218;2022-11-12T04:20:01;11.10;;;8.93;;
9234;SDS011;4652;42.716;23.218;2022-11-12T04:27:02;10.70;;;9.13;;
9234;SDS011;4652;42.716;23.218;2022-11-12T04:33:45;12.27;;;8.73;;
9234;SDS011;4652;42.716;23.218;2022-11-12T04:40:27;13.67;;;11.30;;
9234;SDS011;4652;42.716;23.218;2022-11-12T04:47:29;15.90;;;12.37;;
9234;SDS011;4652;42.716;23.218;2022-11-12T04:54:13;16.23;;;13.03;;
9234;SDS011;4652;42.716;23.218;2022-11-12T05:00:55;16.63;;;12.33;;
9234;SDS011;4652;42.716;23.218;2022-11-12T05:07:38;15.83;;;12.40;;
9234;SDS011;4652;42.716;23.218;2022-11-12T05:14:21;15.17;;;10.33;;
9234;SDS011;4652;42.716;23.218;2022-11-12T05:21:03;11.97;;;9.00;;
9234;SDS011;4652;42.716;23.218;2022-11-12T05:28:07;14.23;;;10.30;;
9234;SDS011;4652;42.716;23.218;2022-11-12T05:34:49;15.90;;;10.17;;
9234;SDS011;4652;42.716;23.218;2022-11-12T05:41:31;24.10;;;12.07;;
9234;SDS011;4652;42.716;23.218;2022-11-12T05:48:15;19.80;;;16.47;;
9234;SDS011;4652;42.716;23.218;2022-11-12T05:54:57;17.77;;;13.80;;
9234;SDS011;4652;42.716;23.218;2022-11-12T06:01:39;13.77;;;10.97;;
9234;SDS011;4652;42.716;23.218;2022-11-12T06:08:25;15.93;;;10.37;;
9234;SDS011;4652;42.716;23.218;2022-11-12T06:15:07;16.27;;;12.40;;
9234;SDS011;4652;42.716;23.218;2022-11-12T06:21:50;13.67;;;10.53;;
9234;SDS011;4652;42.716;23.218;2022-11-12T06:28:34;11.43;;;9.73;;
9234;SDS011;4652;42.716;23.218;2022-11-12T06:35:16;14.17;;;9.20;;
9234;SDS011;4652;42.716;23.218;2022-11-12T06:42:18;16.80;;;12.33;;
9234;SDS011;4652;42.716;23.218;2022-11-12T06:49:02;13.90;;;10.57;;
9234;SDS011;4652;42.716;23.218;2022-11-12T06:55:44;13.13;;;9.70;;
9234;SDS011;4652;42.716;23.218;2022-11-12T07:02:26;10.03;;;8.30;;
9234;SDS011;4652;42.716;23.218;2022-11-12T07:09:09;8.50;;;6.70;;
9234;SDS011;4652;42.716;23.218;2022-11-12T07:15:55;6.03;;;4.90;;
9234;SDS011;4652;42.716;23.218;2022-11-12T07:22:37;8.70;;;7.20;;
9234;SDS011;4652;42.716;23.218;2022-11-12T07:29:20;12.13;;;8.97;;
9234;SDS011;4652;42.716;23.218;2022-11-12T07:36:03;8.80;;;6.47;;
9234;SDS011;4652;42.716;23.218;2022-11-12T07:42:48;11.33;;;8.93;;
9234;SDS011;4652;42.716;23.218;2022-11-12T07:49:32;7.80;;;6.77;;
9234;SDS011;4652;42.716;23.218;2022-11-12T07:56:15;9.03;;;7.00;;
9234;SDS011;4652;42.716;23.218;2022-11-12T08:08:05;9.50;;;5.83;;
9234;SDS011;4652;42.716;23.218;2022-11-12T08:14:47;6.60;;;5.87;;
9234;SDS011;4652;42.716;23.218;2022-11-12T08:21:29;6.73;;;5.67;;
9234;SDS011;4652;42.716;23.218;2022-11-12T08:28:12;8.63;;;6.13;;
9234;SDS011;4652;42.716;23.218;2022-11-12T08:34:55;9.53;;;7.40;;
9234;SDS011;4652;42.716;23.218;2022-11-12T08:41:37;9.37;;;6.67;;
9234;SDS011;4652;42.716;23.218;2022-11-12T08:48:20;7.47;;;5.27;;
9234;SDS011;4652;42.716;23.218;2022-11-12T08:55:03;7.40;;;5.70;;
9234;SDS011;4652;42.716;23.218;2022-11-12T09:01:45;7.47;;;5.87;;
9234;SDS011;4652;42.716;23.218;2022-11-12T09:08:29;7.47;;;4.80;;
9234;SDS011;4652;42.716;23.218;2022-11-12T09:15:13;10.07;;;6.80;;
9234;SDS011;4652;42.716;23.218;2022-11-12T09:21:55;7.73;;;6.30;;
9234;SDS011;4652;42.716;23.218;2022-11-12T09:28:39;4.80;;;3.93;;
9234;SDS011;4652;42.716;23.218;2022-11-12T09:35:22;7.03;;;6.00;;
9234;SDS011;4652;42.716;23.218;2022-11-12T09:42:05;5.77;;;4.37;;
9234;SDS011;4652;42.716;23.218;2022-11-12T09:48:51;10.70;;;7.10;;
9234;SDS011;4652;42.716;23.218;2022-11-12T09:55:37;13.13;;;8.20;;
9234;SDS011;4652;42.716;23.218;2022-11-12T10:02:24;9.37;;;6.60;;
9234;SDS011;4652;42.716;23.218;2022-11-12T10:09:15;10.53;;;7.37;;
9234;SDS011;4652;42.716;23.218;2022-11-12T10:16:17;4.93;;;4.43;;
9234;SDS011;4652;42.716;23.218;2022-11-12T10:23:26;8.03;;;6.40;;
9234;SDS011;4652;42.716;23.218;2022-11-12T10:30:16;7.80;;;5.57;;
9234;SDS011;4652;42.716;23.218;2022-11-12T10:37:00;16.80;;;10.87;;
9234;SDS011;4652;42.716;23.218;2022-11-12T10:43:51;16.60;;;10.07;;
9234;SDS011;4652;42.716;23.218;2022-11-12T10:50:38;8.57;;;6.93;;
9234;SDS011;4652;42.716;23.218;2022-11-12T10:57:23;9.47;;;7.40;;
9234;SDS011;4652;42.716;23.218;2022-11-12T11:04:14;6.80;;;4.40;;
9234;SDS011;4652;42.716;23.218;2022-11-12T11:18:10;6.20;;;4.83;;
9234;SDS011;4652;42.716;23.218;2022-11-12T11:24:57;13.67;;;8.20;;
9234;SDS011;4652;42.716;23.218;2022-11-12T11:31:51;7.10;;;5.47;;
9234;SDS011;4652;42.716;23.218;2022-11-12T11:38:42;8.53;;;6.47;;
9234;SDS011;4652;42.716;23.218;2022-11-12T11:45:38;10.10;;;7.00;;
9234;SDS011;4652;42.716;23.218;2022-11-12T11:52:43;7.90;;;5.90;;
9234;SDS011;4652;42.716;23.218;2022-11-12T11:59:30;11.30;;;7.50;;
9234;SDS011;4652;42.716;23.218;2022-11-12T12:06:23;16.53;;;9.83;;
9234;SDS011;4652;42.716;23.218;2022-11-12T12:13:10;28.30;;;20.40;;
9234;SDS011;4652;42.716;23.218;2022-11-12T12:20:02;10.87;;;7.90;;
9234;SDS011;4652;42.716;23.218;2022-11-12T12:26:52;10.53;;;7.23;;
9234;SDS011;4652;42.716;23.218;2022-11-12T12:33:41;10.00;;;7.60;;
9234;SDS011;4652;42.716;23.218;2022-11-12T12:40:30;6.60;;;5.80;;
9234;SDS011;4652;42.716;23.218;2022-11-12T12:47:14;7.67;;;5.70;;
9234;SDS011;4652;42.716;23.218;2022-11-12T12:54:01;9.77;;;6.80;;
9234;SDS011;4652;42.716;23.218;2022-11-12T13:00:45;10.07;;;7.73;;
9234;SDS011;4652;42.716;23.218;2022-11-12T13:07:37;9.37;;;6.70;;
9234;SDS011;4652;42.716;23.218;2022-11-12T13:21:30;10.53;;;6.83;;
9234;SDS011;4652;42.716;23.218;2022-11-12T13:28:12;11.67;;;6.97;;
9234;SDS011;4652;42.716;23.218;2022-11-12T13:42:16;12.77;;;7.53;;
9234;SDS011;4652;42.716;23.218;2022-11-12T13:49:16;12.73;;;10.03;;
9234;SDS011;4652;42.716;23.218;2022-11-12T13:55:58;8.03;;;7.03;;
9234;SDS011;4652;42.716;23.218;2022-11-12T14:58:33;28.30;;;17.27;;
9234;SDS011;4652;42.716;23.218;2022-11-12T15:05:16;15.40;;;10.40;;
9234;SDS011;4652;42.716;23.218;2022-11-12T15:12:00;9.23;;;7.43;;
9234;SDS011;4652;42.716;23.218;2022-11-12T15:18:49;11.60;;;7.97;;
9234;SDS011;4652;42.716;23.218;2022-11-12T15:25:41;11.70;;;9.37;;
9234;SDS011;4652;42.716;23.218;2022-11-12T15:32:32;11.17;;;8.73;;
9234;SDS011;4652;42.716;23.218;2022-11-12T15:39:22;16.80;;;11.77;;
9234;SDS011;4652;42.716;23.218;2022-11-12T15:46:09;13.00;;;9.50;;
9234;SDS011;4652;42.716;23.218;2022-11-12T15:52:54;10.03;;;8.37;;
9234;SDS011;4652;42.716;23.218;2022-11-12T15:59:41;16.07;;;11.37;;
9234;SDS011;4652;42.716;23.218;2022-11-12T16:06:24;23.20;;;16.33;;
9234;SDS011;4652;42.716;23.218;2022-11-12T16:13:06;42.07;;;27.77;;
9234;SDS011;4652;42.716;23.218;2022-11-12T16:19:55;43.17;;;28.33;;
9234;SDS011;4652;42.716;23.218;2022-11-12T16:26:37;42.47;;;29.70;;
9234;SDS011;4652;42.716;23.218;2022-11-12T16:33:20;68.43;;;46.43;;
9234;SDS011;4652;42.716;23.218;2022-11-12T16:40:05;32.80;;;24.20;;
9234;SDS011;4652;42.716;23.218;2022-11-12T16:46:51;30.53;;;22.97;;
9234;SDS011;4652;42.716;23.218;2022-11-12T16:53:33;22.40;;;17.50;;
9234;SDS011;4652;42.716;23.218;2022-11-12T17:00:16;25.57;;;19.60;;
9234;SDS011;4652;42.716;23.218;2022-11-12T17:06:59;30.07;;;22.77;;
9234;SDS011;4652;42.716;23.218;2022-11-12T17:13:41;33.17;;;22.27;;
9234;SDS011;4652;42.716;23.218;2022-11-12T17:20:25;23.63;;;15.47;;
9234;SDS011;4652;42.716;23.218;2022-11-12T17:27:07;21.77;;;17.43;;
9234;SDS011;4652;42.716;23.218;2022-11-12T17:33:49;13.47;;;11.13;;
9234;SDS011;4652;42.716;23.218;2022-11-12T17:40:33;16.53;;;12.43;;
9234;SDS011;4652;42.716;23.218;2022-11-12T17:47:15;17.27;;;14.30;;
9234;SDS011;4652;42.716;23.218;2022-11-12T17:53:57;20.10;;;13.67;;
9234;SDS011;4652;42.716;23.218;2022-11-12T18:00:40;20.57;;;14.20;;
9234;SDS011;4652;42.716;23.218;2022-11-12T18:07:22;17.30;;;12.83;;
9234;SDS011;4652;42.716;23.218;2022-11-12T18:14:04;19.00;;;15.07;;
9234;SDS011;4652;42.716;23.218;2022-11-12T18:20:48;19.50;;;14.40;;
9234;SDS011;4652;42.716;23.218;2022-11-12T18:27:30;25.63;;;20.47;;
9234;SDS011;4652;42.716;23.218;2022-11-12T18:34:13;19.40;;;13.90;;
9234;SDS011;4652;42.716;23.218;2022-11-12T18:41:03;15.07;;;12.20;;
9234;SDS011;4652;42.716;23.218;2022-11-12T18:47:46;17.27;;;13.40;;
9234;SDS011;4652;42.716;23.218;2022-11-12T18:54:28;18.67;;;14.33;;
9234;SDS011;4652;42.716;23.218;2022-11-12T19:01:13;19.73;;;13.10;;
9234;SDS011;4652;42.716;23.218;2022-11-12T19:07:56;14.27;;;10.90;;
9234;SDS011;4652;42.716;23.218;2022-11-12T19:14:38;19.57;;;14.60;;
9234;SDS011;4652;42.716;23.218;2022-11-12T19:21:22;23.20;;;17.00;;
9234;SDS011;4652;42.716;23.218;2022-11-12T20:08:05;20.07;;;15.17;;
9234;SDS011;4652;42.716;23.218;2022-11-12T20:14:47;21.27;;;15.93;;
9234;SDS011;4652;42.716;23.218;2022-11-12T20:21:29;31.30;;;23.10;;
9234;SDS011;4652;42.716;23.218;2022-11-12T20:28:12;35.73;;;25.30;;
9234;SDS011;4652;42.716;23.218;2022-11-12T20:34:54;18.97;;;13.63;;
9234;SDS011;4652;42.716;23.218;2022-11-12T20:41:36;20.53;;;15.97;;
9234;SDS011;4652;42.716;23.218;2022-11-12T20:48:19;20.47;;;16.73;;
9234;SDS011;4652;42.716;23.218;2022-11-12T20:55:01;27.13;;;21.23;;
9234;SDS011;4652;42.716;23.218;2022-11-12T21:09:42;20.10;;;16.17;;
9234;SDS011;4652;42.716;23.218;2022-11-12T21:16:24;16.40;;;13.30;;
9234;SDS011;4652;42.716;23.218;2022-11-12T21:23:06;13.70;;;11.20;;
9234;SDS011;4652;42.716;23.218;2022-11-12T21:29:50;13.93;;;10.23;;
9234;SDS011;4652;42.716;23.218;2022-11-12T21:36:32;12.20;;;10.07;;
9234;SDS011;4652;42.716;23.218;2022-11-12T21:43:14;11.40;;;9.83;;
9234;SDS011;4652;42.716;23.218;2022-11-12T21:49:59;13.83;;;9.80;;
9234;SDS011;4652;42.716;23.218;2022-11-12T21:56:41;15.27;;;11.23;;
9234;SDS011;4652;42.716;23.218;2022-11-12T22:03:24;17.13;;;12.83;;
9234;SDS011;4652;42.716;23.218;2022-11-12T22:10:11;17.47;;;12.47;;
9234;SDS011;4652;42.716;23.218;2022-11-12T22:16:53;19.00;;;13.63;;
9234;SDS011;4652;42.716;23.218;2022-11-12T22:23:35;22.83;;;14.13;;
9234;SDS011;4652;42.716;23.218;2022-11-12T22:30:18;17.33;;;12.20;;
9234;SDS011;4652;42.716;23.218;2022-11-12T22:37:00;15.67;;;10.97;;
9234;SDS011;4652;42.716;23.218;2022-11-12T22:43:45;15.80;;;12.20;;
9234;SDS011;4652;42.716;23.218;2022-11-12T22:50:29;15.67;;;10.90;;
9234;SDS011;4652;42.716;23.218;2022-11-12T22:57:11;11.17;;;8.50;;
9234;SDS011;4652;42.716;23.218;2022-11-12T23:03:53;13.77;;;11.67;;
9234;SDS011;4652;42.716;23.218;2022-11-12T23:10:39;15.23;;;12.60;;
9234;SDS011;4652;42.716;23.218;2022-11-12T23:17:21;10.17;;;7.23;;
9234;SDS011;4652;42.716;23.218;2022-11-12T23:24:02;6.37;;;5.17;;
9234;SDS011;4652;42.716;23.218;2022-11-12T23:30:48;9.07;;;7.03;;
9234;SDS011;4652;42.716;23.218;2022-11-12T23:37:30;9.67;;;7.83;;
9234;SDS011;4652;42.716;23.218;2022-11-12T23:44:12;12.33;;;9.90;;
9234;SDS011;4652;42.716;23.218;2022-11-12T23:51:00;11.70;;;9.43;;
9234;SDS011;4652;42.716;23.218;2022-11-12T23:57:43;11.20;;;8.93;;
